createdAt,value
2023-05-18T00:02:26.731Z,91.40
2023-05-18T00:04:54.249Z,91.60
2023-05-18T00:07:21.821Z,91.70
2023-05-18T00:09:49.471Z,92.30
2023-05-18T00:12:17.045Z,92.20
2023-05-18T00:14:45.459Z,92.50
2023-05-18T00:17:13.056Z,92.10
2023-05-18T00:19:40.655Z,92.40
2023-05-18T00:22:09.057Z,92.80
2023-05-18T00:24:37.217Z,92.80
2023-05-18T00:27:04.265Z,93.10
2023-05-18T00:29:32.118Z,93.30
2023-05-18T00:31:59.842Z,93.30
2023-05-18T00:34:27.341Z,93.40
2023-05-18T00:36:55.014Z,93.50
2023-05-18T00:39:23.390Z,93.80
2023-05-18T00:41:51.007Z,93.80
2023-05-18T00:44:18.705Z,94.00
2023-05-18T00:46:47.081Z,94.50
2023-05-18T00:49:14.686Z,94.70
2023-05-18T00:51:42.344Z,94.90
2023-05-18T00:54:09.961Z,95.10
2023-05-18T00:56:40.139Z,95.30
2023-05-18T00:59:07.850Z,95.50
2023-05-18T01:01:35.550Z,95.90
2023-05-18T01:04:03.269Z,96.40
2023-05-18T01:06:33.382Z,96.80
2023-05-18T01:09:01.003Z,97.10
2023-05-18T01:11:50.448Z,97.20
2023-05-18T01:14:43.503Z,97.80
2023-05-18T01:17:26.607Z,98.00
2023-05-18T01:20:12.544Z,98.00
2023-05-18T01:22:57.701Z,98.20
2023-05-18T01:25:34.085Z,98.50
2023-05-18T01:28:02.302Z,99.00
2023-05-18T01:30:29.911Z,99.50
2023-05-18T01:32:58.301Z,99.70
2023-05-18T01:35:26.441Z,99.70
2023-05-18T01:37:54.058Z,99.90
2023-05-18T01:40:21.691Z,99.90
2023-05-18T01:42:50.086Z,99.90
2023-05-18T01:45:17.703Z,99.90
2023-05-18T01:47:45.444Z,99.90
2023-05-18T01:50:18.484Z,99.90
2023-05-18T01:52:48.749Z,99.90
2023-05-18T01:55:16.372Z,99.90
2023-05-18T01:57:44.795Z,99.90
2023-05-18T02:00:12.382Z,99.90
2023-05-18T02:02:40.040Z,99.90
2023-05-18T02:05:07.739Z,99.90
2023-05-18T02:07:35.263Z,99.90
2023-05-18T02:10:02.906Z,99.90
2023-05-18T02:12:30.523Z,99.90
2023-05-18T02:14:58.131Z,99.90
2023-05-18T02:17:25.794Z,99.90
2023-05-18T02:19:53.387Z,99.90
2023-05-18T02:22:21.008Z,99.90
2023-05-18T02:24:48.602Z,99.90
2023-05-18T02:27:16.234Z,99.90
2023-05-18T02:29:43.838Z,99.90
2023-05-18T02:32:12.225Z,99.90
2023-05-18T02:34:39.882Z,99.90
2023-05-18T02:37:08.245Z,99.90
2023-05-18T02:39:35.847Z,99.90
2023-05-18T02:42:03.512Z,99.90
2023-05-18T02:44:31.139Z,99.90
2023-05-18T02:46:58.730Z,99.90
2023-05-18T02:49:26.380Z,99.90
2023-05-18T02:51:53.989Z,99.90
2023-05-18T02:54:21.603Z,99.90
2023-05-18T02:56:49.308Z,99.90
2023-05-18T02:59:17.616Z,99.90
2023-05-18T03:01:45.265Z,99.90
2023-05-18T03:04:13.620Z,99.90
2023-05-18T03:06:41.237Z,99.90
2023-05-18T03:09:09.607Z,99.90
2023-05-18T03:11:37.248Z,99.90
2023-05-18T03:14:04.862Z,99.90
2023-05-18T03:16:32.532Z,99.90
2023-05-18T03:19:00.167Z,99.90
2023-05-18T03:21:27.740Z,99.90
2023-05-18T03:23:56.086Z,99.90
2023-05-18T03:26:23.720Z,99.90
2023-05-18T03:28:51.322Z,99.90
2023-05-18T03:31:18.954Z,99.90
2023-05-18T03:33:46.844Z,99.90
2023-05-18T03:36:14.459Z,99.90
2023-05-18T03:38:42.062Z,99.90
2023-05-18T03:41:09.710Z,99.90
2023-05-18T03:43:37.310Z,99.90
2023-05-18T03:46:04.939Z,99.90
2023-05-18T03:48:32.567Z,99.90
2023-05-18T03:51:00.187Z,99.90
2023-05-18T03:53:27.793Z,99.90
2023-05-18T03:55:55.434Z,99.90
2023-05-18T03:58:23.049Z,99.90
2023-05-18T04:00:50.661Z,99.90
2023-05-18T04:03:18.751Z,99.90
2023-05-18T04:05:47.097Z,99.90
2023-05-18T04:08:14.979Z,99.90
2023-05-18T04:10:42.596Z,99.90
2023-05-18T04:13:10.188Z,99.90
2023-05-18T04:15:37.806Z,99.90
2023-05-18T04:18:05.486Z,99.90
2023-05-18T04:20:33.045Z,99.90
2023-05-18T04:23:00.668Z,99.90
2023-05-18T04:25:28.853Z,99.90
2023-05-18T04:27:55.919Z,99.90
2023-05-18T04:30:23.530Z,99.90
2023-05-18T04:32:51.257Z,99.90
2023-05-18T04:35:18.803Z,99.90
2023-05-18T04:37:46.410Z,99.90
2023-05-18T04:40:14.277Z,99.90
2023-05-18T04:42:47.403Z,99.90
2023-05-18T04:45:14.961Z,99.90
2023-05-18T04:47:42.657Z,99.90
2023-05-18T04:50:10.208Z,99.90
2023-05-18T04:52:37.823Z,99.90
2023-05-18T04:55:05.490Z,99.90
2023-05-18T04:57:33.111Z,99.90
2023-05-18T05:00:00.702Z,99.90
2023-05-18T05:02:29.069Z,99.90
2023-05-18T05:04:57.360Z,99.90
2023-05-18T05:07:24.946Z,99.90
2023-05-18T05:09:52.589Z,99.90
2023-05-18T05:12:20.203Z,99.90
2023-05-18T05:14:47.799Z,99.90
2023-05-18T05:17:15.448Z,99.90
2023-05-18T05:19:43.073Z,99.90
2023-05-18T05:22:10.715Z,99.90
2023-05-18T05:24:38.346Z,99.90
2023-05-18T05:27:06.933Z,99.90
2023-05-18T05:29:34.526Z,99.90
2023-05-18T05:32:02.732Z,99.90
2023-05-18T05:34:30.288Z,99.90
2023-05-18T05:36:57.914Z,99.90
2023-05-18T05:39:25.603Z,99.90
2023-05-18T05:41:53.230Z,99.90
2023-05-18T05:44:20.831Z,99.90
2023-05-18T05:46:49.029Z,99.90
2023-05-18T05:49:16.613Z,99.90
2023-05-18T05:51:44.961Z,99.90
2023-05-18T05:54:12.586Z,99.90
2023-05-18T05:56:40.507Z,99.90
2023-05-18T05:59:08.098Z,99.90
2023-05-18T06:01:35.848Z,99.90
2023-05-18T06:04:03.395Z,99.90
2023-05-18T06:06:30.990Z,99.90
2023-05-18T06:08:58.628Z,99.90
2023-05-18T06:11:26.235Z,99.90
2023-05-18T06:13:53.837Z,99.90
2023-05-18T06:16:22.304Z,99.90
2023-05-18T06:18:49.891Z,99.90
2023-05-18T06:21:17.484Z,99.90
2023-05-18T06:23:45.117Z,99.90
2023-05-18T06:26:12.729Z,99.90
2023-05-18T06:28:41.604Z,99.90
2023-05-18T06:31:08.009Z,99.90
2023-05-18T06:33:35.613Z,99.90
2023-05-18T06:36:03.217Z,99.90
2023-05-18T06:38:30.864Z,99.90
2023-05-18T06:40:58.479Z,99.90
2023-05-18T06:43:26.084Z,99.90
2023-05-18T06:45:53.749Z,99.90
2023-05-18T06:48:21.338Z,99.90
2023-05-18T06:50:48.941Z,99.60
2023-05-18T06:53:16.663Z,99.30
2023-05-18T06:55:44.276Z,98.80
2023-05-18T06:58:11.893Z,98.50
2023-05-18T07:00:39.584Z,98.40
2023-05-18T07:03:07.334Z,98.20
2023-05-18T07:05:36.895Z,98.10
2023-05-18T07:08:02.544Z,98.10
2023-05-18T07:10:30.037Z,97.90
2023-05-18T07:12:57.651Z,97.90
2023-05-18T07:15:26.056Z,97.40
2023-05-18T07:17:53.725Z,97.40
2023-05-18T07:20:23.127Z,96.80
2023-05-18T07:22:50.535Z,96.70
2023-05-18T07:25:18.917Z,96.40
2023-05-18T07:27:47.292Z,96.50
2023-05-18T07:30:15.715Z,96.10
2023-05-18T07:32:43.350Z,96.30
2023-05-18T07:35:10.944Z,96.00
2023-05-18T07:37:38.578Z,95.80
2023-05-18T07:40:06.236Z,95.40
2023-05-18T07:42:33.819Z,95.10
2023-05-18T07:45:01.448Z,94.80
2023-05-18T07:47:29.066Z,94.60
2023-05-18T07:49:56.683Z,94.30
2023-05-18T07:52:25.088Z,93.20
2023-05-18T07:54:52.732Z,93.10
2023-05-18T07:57:20.324Z,92.60
2023-05-18T07:59:47.993Z,92.30
2023-05-18T08:02:15.720Z,92.20
2023-05-18T08:04:43.279Z,91.90
2023-05-18T08:07:11.733Z,91.50
2023-05-18T08:09:39.348Z,91.50
2023-05-18T08:12:06.963Z,91.20
2023-05-18T08:14:34.595Z,91.20
2023-05-18T08:17:02.255Z,91.20
2023-05-18T08:19:29.995Z,90.80
2023-05-18T08:21:57.502Z,89.80
2023-05-18T08:24:25.093Z,90.00
2023-05-18T08:26:52.693Z,89.40
2023-05-18T08:29:20.341Z,88.80
2023-05-18T08:31:49.691Z,88.70
2023-05-18T08:34:15.548Z,88.00
2023-05-18T08:36:43.189Z,87.80
2023-05-18T08:39:11.585Z,86.80
2023-05-18T08:41:39.190Z,86.80
2023-05-18T08:44:06.837Z,85.80
2023-05-18T08:46:34.457Z,85.00
2023-05-18T08:49:02.910Z,82.40
2023-05-18T08:51:30.494Z,82.40
2023-05-18T08:53:58.108Z,82.50
2023-05-18T08:56:25.738Z,82.90
2023-05-18T08:58:56.049Z,82.80
2023-05-18T09:01:24.500Z,81.50
2023-05-18T09:03:52.025Z,81.40
2023-05-18T09:06:19.702Z,81.60
2023-05-18T09:08:47.313Z,81.00
2023-05-18T09:11:14.957Z,79.20
2023-05-18T09:13:42.589Z,79.10
2023-05-18T09:16:10.270Z,77.50
2023-05-18T09:18:37.886Z,76.80
2023-05-18T09:21:05.465Z,76.10
2023-05-18T09:23:33.082Z,75.10
2023-05-18T09:26:00.705Z,73.90
2023-05-18T09:28:28.383Z,71.90
2023-05-18T09:30:55.994Z,72.00
2023-05-18T09:33:23.768Z,72.10
2023-05-18T09:35:52.028Z,72.90
2023-05-18T09:38:19.649Z,72.90
2023-05-18T09:40:48.059Z,71.80
2023-05-18T09:43:15.725Z,71.70
2023-05-18T09:45:43.337Z,70.40
2023-05-18T09:48:10.987Z,70.10
2023-05-18T09:50:38.642Z,70.10
2023-05-18T09:53:09.329Z,69.00
2023-05-18T09:55:45.935Z,68.80
2023-05-18T09:58:13.525Z,69.50
2023-05-18T10:00:49.839Z,69.20
2023-05-18T10:03:17.449Z,69.30
2023-05-18T10:05:45.063Z,68.90
2023-05-18T10:08:12.685Z,69.20
2023-05-18T10:10:40.379Z,68.20
2023-05-18T10:13:08.761Z,67.80
2023-05-18T10:15:37.151Z,66.60
2023-05-18T10:18:04.855Z,66.40
2023-05-18T10:20:32.599Z,65.40
2023-05-18T10:23:00.067Z,65.20
2023-05-18T10:25:27.677Z,65.30
2023-05-18T10:27:57.681Z,65.80
2023-05-18T10:30:25.319Z,64.90
2023-05-18T10:32:53.032Z,64.10
2023-05-18T10:35:20.591Z,63.80
2023-05-18T10:37:48.967Z,63.70
2023-05-18T10:40:17.472Z,63.30
2023-05-18T10:42:45.006Z,63.20
2023-05-18T10:45:13.398Z,62.10
2023-05-18T10:47:41.962Z,61.30
2023-05-18T10:50:09.455Z,61.20
2023-05-18T10:52:40.040Z,61.40
2023-05-18T10:55:07.683Z,61.00
2023-05-18T10:57:40.928Z,59.40
2023-05-18T11:00:08.543Z,59.70
2023-05-18T11:02:36.229Z,58.90
2023-05-18T11:05:03.827Z,58.00
2023-05-18T11:07:32.179Z,58.00
2023-05-18T11:10:00.622Z,58.70
2023-05-18T11:12:28.202Z,58.70
2023-05-18T11:14:55.878Z,58.90
2023-05-18T11:17:26.422Z,57.80
2023-05-18T11:20:09.053Z,57.10
2023-05-18T11:22:43.234Z,55.80
2023-05-18T11:25:10.826Z,55.80
2023-05-18T11:27:38.441Z,56.30
2023-05-18T11:30:15.117Z,56.30
2023-05-18T11:32:34.752Z,54.80
2023-05-18T11:35:02.985Z,55.50
2023-05-18T11:37:40.460Z,56.60
2023-05-18T11:40:13.505Z,56.50
2023-05-18T11:42:41.075Z,56.60
2023-05-18T11:45:08.764Z,56.60
2023-05-18T11:47:36.474Z,57.00
2023-05-18T11:50:03.984Z,57.10
2023-05-18T11:52:31.652Z,56.30
2023-05-18T11:55:01.966Z,56.70
2023-05-18T11:57:35.714Z,56.60
2023-05-18T12:00:03.367Z,55.90
2023-05-18T12:02:31.857Z,55.40
2023-05-18T12:05:02.648Z,55.10
2023-05-18T12:07:30.293Z,55.10
2023-05-18T12:10:09.436Z,55.50
2023-05-18T12:12:37.104Z,55.20
2023-05-18T12:15:04.682Z,54.80
2023-05-18T12:17:44.280Z,54.10
2023-05-18T12:20:18.336Z,54.00
2023-05-18T12:22:52.221Z,54.00
2023-05-18T12:25:19.619Z,53.90
2023-05-18T12:27:49.894Z,53.40
2023-05-18T12:30:23.630Z,53.10
2023-05-18T12:32:57.314Z,53.50
2023-05-18T12:35:28.001Z,53.50
2023-05-18T12:38:01.067Z,52.70
2023-05-18T12:40:28.707Z,52.70
2023-05-18T12:43:01.866Z,52.40
2023-05-18T12:45:29.655Z,52.40
2023-05-18T12:47:57.211Z,51.30
2023-05-18T12:50:24.776Z,51.50
2023-05-18T12:52:52.387Z,51.40
2023-05-18T12:55:22.854Z,51.50
2023-05-18T12:58:02.273Z,51.60
2023-05-18T13:00:32.524Z,51.20
2023-05-18T13:03:10.967Z,51.40
2023-05-18T13:05:36.970Z,51.00
2023-05-18T13:08:04.571Z,50.30
2023-05-18T13:10:35.203Z,50.70
2023-05-18T13:13:05.234Z,51.70
2023-05-18T13:15:35.565Z,51.30
2023-05-18T13:18:04.037Z,50.50
2023-05-18T13:20:44.028Z,50.60
2023-05-18T13:23:14.315Z,50.50
2023-05-18T13:25:41.947Z,50.70
2023-05-18T13:28:11.948Z,50.70
2023-05-18T13:30:40.408Z,50.70
2023-05-18T13:33:08.096Z,50.60
2023-05-18T13:35:36.400Z,49.40
2023-05-18T13:38:04.092Z,49.80
2023-05-18T13:40:31.706Z,49.60
2023-05-18T13:42:59.365Z,49.80
2023-05-18T13:45:27.017Z,49.70
2023-05-18T13:47:54.669Z,49.20
2023-05-18T13:50:23.128Z,49.20
2023-05-18T13:52:50.682Z,49.10
2023-05-18T13:55:18.270Z,49.40
2023-05-18T13:57:45.866Z,48.80
2023-05-18T14:00:13.643Z,48.20
2023-05-18T14:02:41.236Z,48.90
2023-05-18T14:05:08.840Z,48.90
2023-05-18T14:07:36.432Z,49.10
2023-05-18T14:10:04.036Z,49.30
2023-05-18T14:12:31.667Z,48.10
2023-05-18T14:14:59.299Z,47.60
2023-05-18T14:17:26.942Z,47.10
2023-05-18T14:19:54.527Z,47.10
2023-05-18T14:22:22.201Z,47.40
2023-05-18T14:24:50.563Z,47.10
2023-05-18T14:27:18.166Z,47.00
2023-05-18T14:29:45.859Z,47.10
2023-05-18T14:32:13.492Z,46.40
2023-05-18T14:34:41.102Z,46.40
2023-05-18T14:37:08.755Z,45.80
2023-05-18T14:39:36.339Z,46.10
2023-05-18T14:42:04.787Z,46.40
2023-05-18T14:44:32.414Z,46.40
2023-05-18T14:47:03.047Z,46.10
2023-05-18T14:49:30.579Z,45.50
2023-05-18T14:51:58.465Z,44.70
2023-05-18T14:54:26.095Z,44.90
2023-05-18T14:56:53.665Z,44.60
2023-05-18T14:59:21.315Z,44.20
2023-05-18T15:01:48.954Z,43.70
2023-05-18T15:04:16.624Z,43.60
2023-05-18T15:06:44.198Z,43.40
2023-05-18T15:09:11.810Z,43.40
2023-05-18T15:11:39.423Z,43.40
2023-05-18T15:14:07.085Z,42.20
2023-05-18T15:16:34.749Z,42.10
2023-05-18T15:19:02.355Z,42.30
2023-05-18T15:21:29.955Z,42.90
2023-05-18T15:23:57.559Z,42.50
2023-05-18T15:26:25.171Z,42.60
2023-05-18T15:28:52.852Z,42.90
2023-05-18T15:31:20.469Z,42.50
2023-05-18T15:33:48.832Z,41.70
2023-05-18T15:36:16.465Z,41.70
2023-05-18T15:38:44.048Z,41.60
2023-05-18T15:41:11.667Z,41.10
2023-05-18T15:43:39.282Z,40.70
2023-05-18T15:46:06.970Z,40.60
2023-05-18T15:48:35.324Z,40.30
2023-05-18T15:51:02.981Z,40.30
2023-05-18T15:53:31.347Z,39.60
2023-05-18T15:55:59.826Z,40.10
2023-05-18T15:58:28.136Z,39.40
2023-05-18T16:00:55.802Z,39.30
2023-05-18T16:03:23.557Z,39.60
2023-05-18T16:05:51.029Z,39.70
2023-05-18T16:08:18.663Z,39.80
2023-05-18T16:10:47.042Z,39.90
2023-05-18T16:13:15.453Z,40.10
2023-05-18T16:15:43.055Z,40.00
2023-05-18T16:18:10.733Z,40.00
2023-05-18T16:20:38.330Z,39.80
2023-05-18T16:23:05.933Z,39.60
2023-05-18T16:25:33.549Z,40.00
2023-05-18T16:28:01.187Z,40.30
2023-05-18T16:30:29.812Z,40.40
2023-05-18T16:32:57.275Z,40.30
2023-05-18T16:35:24.827Z,40.70
2023-05-18T16:37:52.411Z,40.20
2023-05-18T16:40:20.041Z,40.60
2023-05-18T16:42:47.691Z,40.40
2023-05-18T16:45:16.077Z,39.70
2023-05-18T16:47:44.611Z,39.70
2023-05-18T16:50:12.845Z,39.60
2023-05-18T16:52:40.463Z,39.50
2023-05-18T16:55:08.107Z,39.80
2023-05-18T16:57:36.173Z,39.90
2023-05-18T17:00:03.762Z,39.90
2023-05-18T17:02:32.845Z,39.50
2023-05-18T17:05:00.576Z,39.60
2023-05-18T17:07:28.186Z,39.60
2023-05-18T17:09:56.559Z,40.60
2023-05-18T17:12:24.215Z,40.60
2023-05-18T17:14:52.288Z,40.50
2023-05-18T17:17:19.444Z,40.10
2023-05-18T17:19:47.100Z,40.00
2023-05-18T17:22:14.690Z,40.20
2023-05-18T17:24:42.339Z,40.10
2023-05-18T17:27:10.030Z,40.50
2023-05-18T17:29:37.696Z,40.90
2023-05-18T17:32:05.447Z,41.30
2023-05-18T17:34:33.021Z,41.50
2023-05-18T17:37:00.621Z,41.50
2023-05-18T17:39:28.261Z,42.00
2023-05-18T17:41:55.950Z,42.40
2023-05-18T17:44:23.546Z,42.60
2023-05-18T17:46:51.241Z,42.80
2023-05-18T17:49:18.814Z,43.70
2023-05-18T17:51:46.411Z,43.90
2023-05-18T17:54:14.802Z,45.30
2023-05-18T17:56:42.458Z,44.70
2023-05-18T17:59:10.095Z,45.10
2023-05-18T18:01:37.752Z,45.40
2023-05-18T18:04:05.454Z,45.50
2023-05-18T18:06:32.968Z,45.60
2023-05-18T18:09:00.597Z,45.50
2023-05-18T18:11:28.318Z,45.90
2023-05-18T18:13:55.888Z,46.40
2023-05-18T18:16:24.289Z,47.10
2023-05-18T18:18:52.026Z,46.80
2023-05-18T18:21:19.589Z,47.30
2023-05-18T18:23:47.981Z,47.50
2023-05-18T18:26:16.387Z,47.60
2023-05-18T18:28:44.018Z,47.60
2023-05-18T18:31:11.678Z,48.00
2023-05-18T18:33:39.234Z,48.30
2023-05-18T18:36:06.858Z,48.60
2023-05-18T18:38:34.469Z,48.90
2023-05-18T18:41:02.110Z,49.20
2023-05-18T18:43:29.738Z,49.50
2023-05-18T18:45:57.499Z,49.80
2023-05-18T18:48:25.095Z,50.10
2023-05-18T18:50:52.729Z,50.30
2023-05-18T18:53:20.333Z,50.40
2023-05-18T18:55:47.977Z,50.70
2023-05-18T18:58:15.619Z,51.00
2023-05-18T19:00:43.224Z,51.20
2023-05-18T19:03:10.986Z,51.60
2023-05-18T19:05:38.524Z,51.90
2023-05-18T19:08:06.138Z,52.00
2023-05-18T19:10:33.775Z,52.20
2023-05-18T19:13:02.146Z,52.70
2023-05-18T19:15:29.892Z,52.70
2023-05-18T19:17:57.441Z,52.90
2023-05-18T19:20:25.007Z,53.30
2023-05-18T19:22:52.618Z,53.70
2023-05-18T19:25:20.251Z,54.10
2023-05-18T19:27:47.842Z,54.90
2023-05-18T19:30:15.491Z,54.80
2023-05-18T19:32:43.208Z,55.00
2023-05-18T19:35:10.749Z,55.40
2023-05-18T19:37:38.356Z,55.80
2023-05-18T19:40:05.978Z,55.80
2023-05-18T19:42:33.591Z,55.80
2023-05-18T19:45:01.970Z,56.40
2023-05-18T19:47:29.635Z,55.80
2023-05-18T19:49:57.228Z,56.20
2023-05-18T19:52:24.841Z,56.70
2023-05-18T19:54:52.488Z,57.10
2023-05-18T19:57:20.126Z,57.50
2023-05-18T19:59:52.099Z,58.10
2023-05-18T20:02:19.736Z,58.10
2023-05-18T20:04:47.306Z,58.30
2023-05-18T20:07:14.925Z,58.60
2023-05-18T20:09:42.576Z,58.90
2023-05-18T20:12:10.198Z,59.30
2023-05-18T20:14:37.795Z,59.50
2023-05-18T20:17:05.513Z,59.90
2023-05-18T20:19:33.084Z,60.50
2023-05-18T20:22:00.747Z,61.80
2023-05-18T20:24:28.335Z,61.40
2023-05-18T20:26:55.952Z,61.80
2023-05-18T20:29:23.560Z,62.50
2023-05-18T20:31:51.231Z,63.50
2023-05-18T20:34:18.812Z,64.10
2023-05-18T20:36:47.189Z,65.10
2023-05-18T20:39:15.591Z,65.40
2023-05-18T20:41:43.210Z,65.30
2023-05-18T20:44:10.824Z,66.20
2023-05-18T20:46:38.628Z,65.70
2023-05-18T20:49:06.117Z,66.00
2023-05-18T20:51:33.707Z,65.80
2023-05-18T20:54:01.358Z,66.10
2023-05-18T20:56:28.961Z,66.60
2023-05-18T20:58:56.565Z,67.00
2023-05-18T21:01:25.055Z,67.90
2023-05-18T21:03:52.744Z,67.90
2023-05-18T21:06:20.979Z,68.00
2023-05-18T21:08:49.439Z,69.00
2023-05-18T21:11:16.998Z,69.00
2023-05-18T21:13:44.613Z,69.30
2023-05-18T21:16:12.384Z,69.80
2023-05-18T21:18:39.896Z,70.10
2023-05-18T21:21:07.510Z,70.50
2023-05-18T21:23:35.153Z,70.60
2023-05-18T21:26:02.765Z,70.90
2023-05-18T21:28:30.366Z,71.10
2023-05-18T21:30:58.026Z,71.40
2023-05-18T21:33:26.457Z,72.00
2023-05-18T21:35:54.045Z,72.00
2023-05-18T21:38:21.679Z,72.40
2023-05-18T21:40:49.282Z,72.70
2023-05-18T21:43:16.881Z,73.60
2023-05-18T21:45:44.568Z,73.10
2023-05-18T21:48:12.195Z,73.50
2023-05-18T21:50:39.767Z,73.90
2023-05-18T21:53:07.420Z,74.90
2023-05-18T21:55:35.027Z,74.70
2023-05-18T21:58:02.651Z,74.20
2023-05-18T22:00:30.424Z,74.90
2023-05-18T22:02:57.957Z,76.10
2023-05-18T22:05:25.560Z,75.80
2023-05-18T22:07:53.221Z,76.40
2023-05-18T22:10:20.839Z,76.80
2023-05-18T22:12:49.210Z,78.00
2023-05-18T22:15:16.893Z,78.00
2023-05-18T22:17:44.607Z,78.80
2023-05-18T22:20:12.140Z,79.40
2023-05-18T22:22:40.550Z,80.80
2023-05-18T22:25:08.186Z,80.70
2023-05-18T22:27:35.799Z,81.40
2023-05-18T22:30:04.254Z,82.50
2023-05-18T22:32:31.955Z,82.50
2023-05-18T22:34:59.470Z,82.90
2023-05-18T22:37:27.164Z,83.30
2023-05-18T22:39:55.531Z,84.00
2023-05-18T22:42:23.145Z,84.00
2023-05-18T22:44:50.809Z,84.40
2023-05-18T22:47:18.407Z,84.80
2023-05-18T22:49:46.060Z,85.20
2023-05-18T22:52:13.707Z,85.70
2023-05-18T22:54:41.312Z,86.70
2023-05-18T22:57:09.689Z,86.40
2023-05-18T22:59:38.122Z,86.90
2023-05-18T23:02:05.808Z,86.90
2023-05-18T23:04:34.207Z,88.00
2023-05-18T23:07:02.551Z,89.00
2023-05-18T23:09:30.175Z,88.50
2023-05-18T23:11:57.779Z,89.10
2023-05-18T23:14:25.474Z,89.70
2023-05-18T23:16:53.074Z,90.00
2023-05-18T23:19:20.757Z,90.30
2023-05-18T23:21:48.330Z,90.50
2023-05-18T23:24:15.939Z,90.70
2023-05-18T23:26:44.343Z,90.80
2023-05-18T23:29:12.030Z,90.80
2023-05-18T23:31:39.651Z,91.00
2023-05-18T23:34:08.074Z,91.30
2023-05-18T23:36:36.431Z,91.60
2023-05-18T23:39:04.029Z,91.60
2023-05-18T23:41:31.643Z,91.80
2023-05-18T23:43:59.333Z,92.00
2023-05-18T23:46:27.687Z,92.10
2023-05-18T23:48:55.282Z,92.10
2023-05-18T23:51:22.923Z,92.40
2023-05-18T23:53:50.557Z,92.10
2023-05-18T23:56:18.898Z,92.50
2023-05-18T23:58:46.585Z,92.40
